航空気象通報

ウインドサーファーのための航空気象通報による風予報です。

9/30-10/2の航空気象通報

2016年10月01日 00時25分28秒 | TAF

羽田空港
TAF RJTT 301105Z 3012/0118 13008KT 9999 FEW015 BKN025
BECMG 3016/3018 01012KT
TEMPO 3018/3021 3000 SHRA BR FEW005 BKN008
TEMPO 3021/0103 4000 -RA BR FEW005 BKN008
日本時間30日21時-1日01時:130度から8ノットの風
01-03時:風が変化
03時-2日03時:010度から12ノットの風

但し、1日03-12時の間:ときどき

静岡空港
TAF RJNS 301113Z 3012/0118 36004KT 8000 FEW005 BKN012
TEMPO 3015/3019 4000 SHRA BR FEW003 BKN005
TEMPO 3019/3022 FEW003 BKN005
BECMG 0100/0103 14006KT
BECMG 0112/0115 34004KT FEW005 BKN008
TEMPO 0115/0118 4000 -SHRA BR FEW003 BKN005
日本時間30日21時-1日09時:360度から4ノットの風
09-12時:風が変化
12-21時:140度から6ノットの風
21-24時:風が変化
2日00-03時:340度から4ノットの風

但し、1日00-04時の間:ときどき
但し、2日00-03時の間:ときどき

福岡空港
TAF RJFF 301106Z 3012/0118 35004KT 9999 FEW008 SCT010 BKN020
TEMPO 3012/3018 FEW005 BKN008 BKN015
BECMG 0112/0115 14005KT
日本時間30日21時-1日21時:350度から4ノットの風
21-24時:風が変化
2日00-03時:140度から5ノットの風

那覇空港
TAF ROAH 301105Z 3012/0118 11005KT 9999 FEW020
BECMG 0103/0106 08008KT
日本時間30日21時-1日12時:110度から5ノットの風
12-15時:風が変化
15時-2日03時:080度から8ノットの風

石垣空港
TAF ROIG 301107Z 3012/0118 10008KT 9999 FEW010
日本時間30日21時-2日03時:100度から8ノットの風

マウイのカフルイ空港
PHOG 301128Z 3012/0112 05011KT P6SM FEW030 FEW050 BKN250
FM302000 05019G28KT P6SM FEW030 SCT050
FM010500 05011G16KT P6SM FEW030 SCT050 AMD LTD TO VIS AND WIND TIL 301600
ハワイ時間30日02-10時:050度から11ノットの風
10-19時:050度から19ノット、突風28ノット
19時-1日02時:050度から11ノット、突風16ノット

サイパン空港
TAF PGSN 301129Z 3012/0112 20009KT P6SM VCSH FEW018 SCT050 BKN110
マリアナ時間30日22時-1日22時:200度から9ノットの風

ジャンル:
お天気
コメント   この記事についてブログを書く
この記事をはてなブックマークに追加
« 9/29-10/1の航空気象通報 | トップ | 10/1-10/3の航空気象通報 »
最近の画像もっと見る

コメントを投稿

ブログ作成者から承認されるまでコメントは反映されません。

TAF」カテゴリの最新記事